createdAt,value
2019-03-17T00:02:22.220Z,13.25
2019-03-17T00:04:50.159Z,14.33
2019-03-17T00:07:18.029Z,13.30
2019-03-17T00:09:45.927Z,16.23
2019-03-17T00:12:15.891Z,13.53
2019-03-17T00:14:43.834Z,14.93
2019-03-17T00:17:11.792Z,13.80
2019-03-17T00:19:41.322Z,13.95
2019-03-17T00:22:09.893Z,14.90
2019-03-17T00:24:38.812Z,15.13
2019-03-17T00:27:08.432Z,14.05
2019-03-17T00:29:42.377Z,14.80
2019-03-17T00:32:15.012Z,13.60
2019-03-17T00:34:44.344Z,13.80
2019-03-17T00:37:14.207Z,13.13
2019-03-17T00:39:42.157Z,13.72
2019-03-17T00:42:10.121Z,13.95
2019-03-17T00:44:38.198Z,13.55
2019-03-17T00:47:06.152Z,14.15
2019-03-17T00:49:36.489Z,13.30
2019-03-17T00:52:04.464Z,13.70
2019-03-17T00:54:32.338Z,15.58
2019-03-17T00:57:01.442Z,13.90
2019-03-17T00:59:29.787Z,15.65
2019-03-17T01:01:57.825Z,13.55
2019-03-17T01:04:27.924Z,13.68
2019-03-17T01:06:55.858Z,13.22
2019-03-17T01:09:24.075Z,14.55
2019-03-17T01:11:53.950Z,13.28
2019-03-17T01:14:21.843Z,14.10
2019-03-17T01:16:51.989Z,14.07
2019-03-17T01:19:19.937Z,13.85
2019-03-17T01:21:47.831Z,13.25
2019-03-17T01:24:15.853Z,14.80
2019-03-17T01:26:43.749Z,15.43
2019-03-17T01:29:13.155Z,14.95
2019-03-17T01:31:41.172Z,14.78
2019-03-17T01:34:10.640Z,14.90
2019-03-17T01:36:38.651Z,14.03
2019-03-17T01:39:07.181Z,15.30
2019-03-17T01:41:35.108Z,13.62
2019-03-17T01:44:03.018Z,13.60
2019-03-17T01:46:36.015Z,13.22
2019-03-17T01:49:04.073Z,13.30
2019-03-17T01:51:32.051Z,14.10
2019-03-17T01:54:00.001Z,14.90
2019-03-17T01:56:28.255Z,14.03
2019-03-17T01:58:57.298Z,13.20
2019-03-17T02:01:25.306Z,14.00
2019-03-17T02:03:53.159Z,13.38
2019-03-17T02:06:21.106Z,15.80
2019-03-17T02:08:49.034Z,13.80
2019-03-17T02:11:17.426Z,13.38
2019-03-17T02:13:46.107Z,13.83
2019-03-17T02:16:15.873Z,13.65
2019-03-17T02:18:44.889Z,14.43
2019-03-17T02:21:13.710Z,14.15
2019-03-17T02:23:44.397Z,14.65
2019-03-17T02:26:18.105Z,14.45
2019-03-17T02:28:46.948Z,15.28
2019-03-17T02:31:24.779Z,15.13
2019-03-17T02:33:53.756Z,13.85
2019-03-17T02:36:23.750Z,13.95
2019-03-17T02:38:52.728Z,16.25
2019-03-17T02:41:20.626Z,15.13
2019-03-17T02:43:50.804Z,15.13
2019-03-17T02:46:18.787Z,15.55
2019-03-17T02:48:48.226Z,14.25
2019-03-17T02:51:16.133Z,14.47
2019-03-17T02:53:44.187Z,14.30
2019-03-17T02:56:12.152Z,14.78
2019-03-17T02:58:40.402Z,14.10
2019-03-17T03:01:11.063Z,13.95
2019-03-17T03:03:38.998Z,14.55
2019-03-17T03:06:08.913Z,14.33
2019-03-17T03:08:37.155Z,15.08
2019-03-17T03:11:11.163Z,15.00
2019-03-17T03:13:39.066Z,15.75
2019-03-17T03:16:08.158Z,14.23
2019-03-17T03:18:36.503Z,14.30
2019-03-17T03:21:07.089Z,13.60
2019-03-17T03:23:35.532Z,13.98
2019-03-17T03:26:03.461Z,14.33
2019-03-17T03:28:31.424Z,14.30
2019-03-17T03:31:01.056Z,15.68
2019-03-17T03:33:28.951Z,13.55
2019-03-17T03:36:10.163Z,16.07
2019-03-17T03:38:27.808Z,15.72
2019-03-17T03:40:55.720Z,15.35
2019-03-17T03:43:23.742Z,15.95
2019-03-17T03:45:52.613Z,15.35
2019-03-17T03:48:20.578Z,13.65
2019-03-17T03:50:48.563Z,15.93
2019-03-17T03:53:16.459Z,15.03
2019-03-17T03:55:48.215Z,14.43
2019-03-17T03:58:20.255Z,14.90
2019-03-17T04:00:48.161Z,14.45
2019-03-17T04:03:21.187Z,15.55
2019-03-17T04:05:48.902Z,14.40
2019-03-17T04:08:16.825Z,14.20
2019-03-17T04:10:45.101Z,14.45
2019-03-17T04:13:14.603Z,15.60
2019-03-17T04:15:42.666Z,14.03
2019-03-17T04:18:12.402Z,14.25
2019-03-17T04:20:40.307Z,16.67
2019-03-17T04:23:13.002Z,14.40
2019-03-17T04:25:43.104Z,16.15
2019-03-17T04:28:12.213Z,14.93
2019-03-17T04:30:41.369Z,14.90
2019-03-17T04:33:09.282Z,15.88
2019-03-17T04:35:37.208Z,16.32
2019-03-17T04:38:05.239Z,21.52
2019-03-17T04:40:33.789Z,17.35
2019-03-17T04:43:01.673Z,16.42
2019-03-17T04:45:30.846Z,15.20
2019-03-17T04:48:00.053Z,18.52
2019-03-17T04:50:29.054Z,16.32
2019-03-17T04:53:05.083Z,16.80
2019-03-17T04:55:33.029Z,18.02
2019-03-17T04:58:03.553Z,15.63
2019-03-17T05:00:32.949Z,15.50
2019-03-17T05:03:00.923Z,15.80
2019-03-17T05:05:28.949Z,18.00
2019-03-17T05:08:01.143Z,15.85
2019-03-17T05:10:29.071Z,15.98
2019-03-17T05:12:58.993Z,14.65
2019-03-17T05:15:26.913Z,15.43
2019-03-17T05:17:54.826Z,16.62
2019-03-17T05:20:22.698Z,15.88
2019-03-17T05:22:50.627Z,16.35
2019-03-17T05:25:18.595Z,13.90
2019-03-17T05:27:46.542Z,15.68
2019-03-17T05:30:14.444Z,14.80
2019-03-17T05:32:42.406Z,14.55
2019-03-17T05:35:11.654Z,15.63
2019-03-17T05:37:39.694Z,20.08
2019-03-17T05:40:08.763Z,15.48
2019-03-17T05:42:40.404Z,17.00
2019-03-17T05:45:08.718Z,18.40
2019-03-17T05:47:37.527Z,17.73
2019-03-17T05:50:05.905Z,17.37
2019-03-17T05:52:37.034Z,15.70
2019-03-17T05:55:05.138Z,16.75
2019-03-17T05:57:34.038Z,15.18
2019-03-17T06:00:02.222Z,15.20
2019-03-17T06:02:32.973Z,17.23
2019-03-17T06:05:00.913Z,19.50
2019-03-17T06:07:28.836Z,17.00
2019-03-17T06:09:56.748Z,17.40
2019-03-17T06:12:24.870Z,18.60
2019-03-17T06:14:52.842Z,19.25
2019-03-17T06:17:22.564Z,16.50
2019-03-17T06:19:50.521Z,16.85
2019-03-17T06:22:19.680Z,18.40
2019-03-17T06:24:47.930Z,17.85
2019-03-17T06:27:15.855Z,19.52
2019-03-17T06:29:45.827Z,17.07
2019-03-17T06:32:13.478Z,17.90
2019-03-17T06:34:41.803Z,20.37
2019-03-17T06:37:09.998Z,19.48
2019-03-17T06:39:40.125Z,19.50
2019-03-17T06:42:09.894Z,18.75
2019-03-17T06:44:38.969Z,21.30
2019-03-17T06:47:07.350Z,17.98
2019-03-17T06:49:35.281Z,19.57
2019-03-17T06:52:03.187Z,17.73
2019-03-17T06:54:32.182Z,18.70
2019-03-17T06:57:00.521Z,18.05
2019-03-17T06:59:29.013Z,18.02
2019-03-17T07:01:57.003Z,20.23
2019-03-17T07:04:26.054Z,19.05
2019-03-17T07:06:54.006Z,18.77
2019-03-17T07:09:24.076Z,17.62
2019-03-17T07:11:51.753Z,17.05
2019-03-17T07:14:19.834Z,16.97
2019-03-17T07:16:48.176Z,21.02
2019-03-17T07:19:18.482Z,17.92
2019-03-17T07:21:47.594Z,17.95
2019-03-17T07:24:16.646Z,18.30
2019-03-17T07:26:46.881Z,20.52
2019-03-17T07:29:15.708Z,19.37
2019-03-17T07:31:43.687Z,16.80
2019-03-17T07:34:12.158Z,20.60
2019-03-17T07:36:42.099Z,18.67
2019-03-17T07:39:12.572Z,23.62
2019-03-17T07:41:41.826Z,21.20
2019-03-17T07:44:09.983Z,20.80
2019-03-17T07:46:37.825Z,20.12
2019-03-17T07:49:05.695Z,18.95
2019-03-17T07:51:33.537Z,22.70
2019-03-17T07:54:01.458Z,17.67
2019-03-17T07:56:29.387Z,21.62
2019-03-17T07:58:57.323Z,18.65
2019-03-17T08:01:25.246Z,19.50
2019-03-17T08:03:53.138Z,20.57
2019-03-17T08:06:20.990Z,16.70
2019-03-17T08:08:49.025Z,16.95
2019-03-17T08:11:16.973Z,16.48
2019-03-17T08:13:44.837Z,17.70
2019-03-17T08:16:12.834Z,16.95
2019-03-17T08:18:40.709Z,17.77
2019-03-17T08:21:08.577Z,16.67
2019-03-17T08:23:36.432Z,16.12
2019-03-17T08:26:04.327Z,16.23
2019-03-17T08:28:32.203Z,15.30
2019-03-17T08:31:00.055Z,15.70
2019-03-17T08:33:27.882Z,15.25
2019-03-17T08:35:55.725Z,16.00
2019-03-17T08:38:23.541Z,16.80
2019-03-17T08:40:51.395Z,21.55
2019-03-17T08:43:19.236Z,20.37
2019-03-17T08:45:47.113Z,19.27
2019-03-17T08:48:15.018Z,15.05
2019-03-17T08:50:42.934Z,14.45
2019-03-17T08:53:10.821Z,13.88
2019-03-17T08:55:38.766Z,14.20
2019-03-17T08:58:06.671Z,14.05
2019-03-17T09:00:34.514Z,13.58
2019-03-17T09:03:02.345Z,13.95
2019-03-17T09:05:30.191Z,13.83
2019-03-17T09:07:58.014Z,13.60
2019-03-17T09:10:25.841Z,13.58
2019-03-17T09:12:53.714Z,13.45
2019-03-17T09:15:21.567Z,13.70
2019-03-17T09:17:49.408Z,14.30
2019-03-17T09:20:17.277Z,13.88
2019-03-17T09:22:45.118Z,14.15
2019-03-17T09:25:13.067Z,14.15
2019-03-17T09:27:40.919Z,13.83
2019-03-17T09:30:09.527Z,13.88
2019-03-17T09:32:37.421Z,14.13
2019-03-17T09:35:05.398Z,13.78
2019-03-17T09:37:33.285Z,14.00
2019-03-17T09:40:01.118Z,13.22
2019-03-17T09:42:28.992Z,13.48
2019-03-17T09:44:56.891Z,13.40
2019-03-17T09:47:24.741Z,13.90
2019-03-17T09:49:58.762Z,13.40
2019-03-17T09:52:22.638Z,13.90
2019-03-17T09:54:50.587Z,14.10
2019-03-17T09:57:18.442Z,13.68
2019-03-17T09:59:46.313Z,13.50
2019-03-17T10:02:14.184Z,14.28
2019-03-17T10:04:42.075Z,14.85
2019-03-17T10:07:09.981Z,14.18
2019-03-17T10:09:37.893Z,13.50
2019-03-17T10:12:05.809Z,13.30
2019-03-17T10:14:33.715Z,13.30
2019-03-17T10:17:01.563Z,13.60
2019-03-17T10:19:29.461Z,13.68
2019-03-17T10:21:57.405Z,12.93
2019-03-17T10:24:25.734Z,12.93
2019-03-17T10:26:53.658Z,12.50
2019-03-17T10:29:21.543Z,13.90
2019-03-17T10:31:49.495Z,12.18
2019-03-17T10:34:17.470Z,12.73
2019-03-17T10:36:45.342Z,12.50
2019-03-17T10:39:13.192Z,13.80
2019-03-17T10:41:41.103Z,14.35
2019-03-17T10:44:09.006Z,13.22
2019-03-17T10:46:36.899Z,14.93
2019-03-17T10:49:12.354Z,13.40
2019-03-17T10:51:40.362Z,14.35
2019-03-17T10:54:08.280Z,13.50
2019-03-17T10:56:37.337Z,15.30
2019-03-17T10:59:11.568Z,14.45
2019-03-17T11:01:35.658Z,13.50
2019-03-17T11:04:05.255Z,15.00
2019-03-17T11:06:33.209Z,16.17
2019-03-17T11:09:04.888Z,15.03
2019-03-17T11:11:35.102Z,14.95
2019-03-17T11:14:03.134Z,13.18
2019-03-17T11:16:31.853Z,13.70
2019-03-17T11:19:03.422Z,14.07
2019-03-17T11:21:33.634Z,12.73
2019-03-17T11:24:01.642Z,12.10
2019-03-17T11:26:30.750Z,12.37
2019-03-17T11:29:00.982Z,15.45
2019-03-17T11:31:29.986Z,12.90
2019-03-17T11:33:57.895Z,13.05
2019-03-17T11:36:26.897Z,13.08
2019-03-17T11:38:56.880Z,13.45
2019-03-17T11:41:24.977Z,13.48
2019-03-17T11:43:54.585Z,13.80
2019-03-17T11:46:27.491Z,15.35
2019-03-17T11:48:57.030Z,14.15
2019-03-17T11:51:25.442Z,13.45
2019-03-17T11:53:53.730Z,13.55
2019-03-17T11:56:23.867Z,14.20
2019-03-17T11:58:51.918Z,14.55
2019-03-17T12:01:19.989Z,13.95
2019-03-17T12:03:48.003Z,14.10
2019-03-17T12:06:17.975Z,15.18
2019-03-17T12:08:46.276Z,13.48
2019-03-17T12:11:14.261Z,13.58
2019-03-17T12:13:43.564Z,14.85
2019-03-17T12:16:11.535Z,14.87
2019-03-17T12:18:39.532Z,13.65
2019-03-17T12:21:07.492Z,13.80
2019-03-17T12:23:36.766Z,15.65
2019-03-17T12:26:05.118Z,16.20
2019-03-17T12:28:34.249Z,12.80
2019-03-17T12:31:03.180Z,13.90
2019-03-17T12:33:31.083Z,13.48
2019-03-17T12:35:59.021Z,14.23
2019-03-17T12:38:27.016Z,12.78
2019-03-17T12:40:57.396Z,13.25
2019-03-17T12:43:25.300Z,14.85
2019-03-17T12:45:55.138Z,13.72
2019-03-17T12:48:24.797Z,14.75
2019-03-17T12:50:52.739Z,15.58
2019-03-17T12:53:20.666Z,14.43
2019-03-17T12:55:48.614Z,15.58
2019-03-17T12:58:16.576Z,14.07
2019-03-17T13:00:44.525Z,13.80
2019-03-17T13:03:12.541Z,13.32
2019-03-17T13:05:40.482Z,13.05
2019-03-17T13:08:08.412Z,13.10
2019-03-17T13:10:36.677Z,13.80
2019-03-17T13:13:07.258Z,13.10
2019-03-17T13:15:35.186Z,13.32
2019-03-17T13:18:03.053Z,13.75
2019-03-17T13:20:31.450Z,13.70
2019-03-17T13:22:59.354Z,13.80
2019-03-17T13:25:27.213Z,13.13
2019-03-17T13:27:55.164Z,13.13
2019-03-17T13:30:23.007Z,13.60
2019-03-17T13:32:50.882Z,12.20
2019-03-17T13:35:18.717Z,12.58
2019-03-17T13:37:46.584Z,11.68
2019-03-17T13:40:27.486Z,11.63
2019-03-17T13:42:44.070Z,12.30
2019-03-17T13:45:12.144Z,12.88
2019-03-17T13:47:40.170Z,12.70
2019-03-17T13:50:09.081Z,13.13
2019-03-17T13:52:36.968Z,14.25
2019-03-17T13:55:04.839Z,12.07
2019-03-17T13:57:32.725Z,12.65
2019-03-17T14:00:00.564Z,12.65
2019-03-17T14:02:28.462Z,13.65
2019-03-17T14:04:56.314Z,12.45
2019-03-17T14:07:24.129Z,13.83
2019-03-17T14:09:52.035Z,12.33
2019-03-17T14:12:20.083Z,12.40
2019-03-17T14:14:47.986Z,12.28
2019-03-17T14:17:15.798Z,12.50
2019-03-17T14:19:44.050Z,13.53
2019-03-17T14:22:11.907Z,12.63
2019-03-17T14:24:39.764Z,15.03
2019-03-17T14:27:07.677Z,16.62
2019-03-17T14:29:35.553Z,12.95
2019-03-17T14:32:03.393Z,13.28
2019-03-17T14:34:31.284Z,13.45
2019-03-17T14:36:59.142Z,15.58
2019-03-17T14:39:27.002Z,13.55
2019-03-17T14:41:54.886Z,14.33
2019-03-17T14:44:22.817Z,13.48
2019-03-17T14:46:50.676Z,13.45
2019-03-17T14:49:18.557Z,14.87
2019-03-17T14:51:46.759Z,14.80
2019-03-17T14:54:14.622Z,13.70
2019-03-17T14:56:42.472Z,13.40
2019-03-17T14:59:12.427Z,13.22
2019-03-17T15:01:39.941Z,13.43
2019-03-17T15:04:07.824Z,13.80
2019-03-17T15:06:35.717Z,13.40
2019-03-17T15:09:03.946Z,12.68
2019-03-17T15:11:31.892Z,13.30
2019-03-17T15:13:59.818Z,13.10
2019-03-17T15:16:29.585Z,13.40
2019-03-17T15:18:58.434Z,12.90
2019-03-17T15:21:26.803Z,13.78
2019-03-17T15:23:54.869Z,13.00
2019-03-17T15:26:25.000Z,14.55
2019-03-17T15:28:52.882Z,14.47
2019-03-17T15:31:20.786Z,13.48
2019-03-17T15:33:48.966Z,13.45
2019-03-17T15:36:16.869Z,13.60
2019-03-17T15:38:44.734Z,13.78
2019-03-17T15:41:18.595Z,13.70
2019-03-17T15:43:42.222Z,14.10
2019-03-17T15:46:10.164Z,13.20
2019-03-17T15:48:38.069Z,12.60
2019-03-17T15:51:05.945Z,12.33
2019-03-17T15:53:33.778Z,13.15
2019-03-17T15:56:01.679Z,13.62
2019-03-17T15:58:29.531Z,12.43
2019-03-17T16:00:59.722Z,12.90
2019-03-17T16:03:28.992Z,12.78
2019-03-17T16:05:56.961Z,14.07
2019-03-17T16:08:24.955Z,13.03
2019-03-17T16:10:53.192Z,12.85
2019-03-17T16:13:21.093Z,12.43
2019-03-17T16:15:49.023Z,13.20
2019-03-17T16:18:17.046Z,12.82
2019-03-17T16:20:44.912Z,12.63
2019-03-17T16:23:13.193Z,12.85
2019-03-17T16:25:41.058Z,13.13
2019-03-17T16:28:09.029Z,13.05
2019-03-17T16:30:37.009Z,13.13
2019-03-17T16:33:05.085Z,12.35
2019-03-17T16:35:32.911Z,14.60
2019-03-17T16:38:02.324Z,13.35
2019-03-17T16:40:32.505Z,13.25
2019-03-17T16:43:00.462Z,15.88
2019-03-17T16:45:28.394Z,13.88
2019-03-17T16:47:56.279Z,14.60
2019-03-17T16:50:24.221Z,17.52
2019-03-17T16:52:52.066Z,12.70
2019-03-17T16:55:20.010Z,14.35
2019-03-17T16:57:47.900Z,14.45
2019-03-17T17:00:18.889Z,13.53
2019-03-17T17:02:46.105Z,13.55
2019-03-17T17:05:14.028Z,18.15
2019-03-17T17:07:41.930Z,16.45
2019-03-17T17:10:10.581Z,14.47
2019-03-17T17:12:38.450Z,13.80
2019-03-17T17:15:08.367Z,13.53
2019-03-17T17:17:36.240Z,13.05
2019-03-17T17:20:04.576Z,14.10
2019-03-17T17:22:32.443Z,13.58
2019-03-17T17:25:00.398Z,16.23
2019-03-17T17:27:28.323Z,13.10
2019-03-17T17:29:56.204Z,13.40
2019-03-17T17:32:24.192Z,13.32
2019-03-17T17:34:52.050Z,15.55
2019-03-17T17:37:19.996Z,14.23
2019-03-17T17:39:47.982Z,14.13
2019-03-17T17:42:17.472Z,13.80
2019-03-17T17:44:45.344Z,14.05
2019-03-17T17:47:13.268Z,13.90
2019-03-17T17:49:41.215Z,14.40
2019-03-17T17:52:09.189Z,14.30
2019-03-17T17:54:37.052Z,13.30
2019-03-17T17:57:04.945Z,13.30
2019-03-17T17:59:32.779Z,14.55
2019-03-17T18:02:00.885Z,13.95
2019-03-17T18:04:28.863Z,13.25
2019-03-17T18:06:56.738Z,13.83
2019-03-17T18:09:24.685Z,14.33
2019-03-17T18:11:52.605Z,21.57
2019-03-17T18:14:20.566Z,13.70
2019-03-17T18:16:51.879Z,13.20
2019-03-17T18:19:19.790Z,15.35
2019-03-17T18:21:49.723Z,14.55
2019-03-17T18:24:19.297Z,15.20
2019-03-17T18:26:47.342Z,13.00
2019-03-17T18:29:15.409Z,13.80
2019-03-17T18:31:45.701Z,13.50
2019-03-17T18:34:13.662Z,13.75
2019-03-17T18:36:43.442Z,13.48
2019-03-17T18:39:12.894Z,14.73
2019-03-17T18:41:41.978Z,13.38
2019-03-17T18:44:11.223Z,14.40
2019-03-17T18:46:39.222Z,13.60
2019-03-17T18:49:07.444Z,13.25
2019-03-17T18:51:35.978Z,15.08
2019-03-17T18:54:05.525Z,13.85
2019-03-17T18:56:35.376Z,14.33
2019-03-17T18:59:06.125Z,13.98
2019-03-17T19:01:34.094Z,14.58
2019-03-17T19:04:02.082Z,12.93
2019-03-17T19:06:31.312Z,13.95
2019-03-17T19:08:59.339Z,16.35
2019-03-17T19:11:27.306Z,14.60
2019-03-17T19:13:55.261Z,14.30
2019-03-17T19:16:23.168Z,14.70
2019-03-17T19:18:51.175Z,15.63
2019-03-17T19:21:23.128Z,17.65
2019-03-17T19:23:53.090Z,14.05
2019-03-17T19:26:22.156Z,14.90
2019-03-17T19:28:52.053Z,14.55
2019-03-17T19:31:20.338Z,14.03
2019-03-17T19:33:48.423Z,15.32
2019-03-17T19:36:16.345Z,16.48
2019-03-17T19:38:44.286Z,16.32
2019-03-17T19:41:15.351Z,13.85
2019-03-17T19:43:43.910Z,16.27
2019-03-17T19:46:11.924Z,14.60
2019-03-17T19:48:39.862Z,13.50
2019-03-17T19:51:09.398Z,15.18
2019-03-17T19:53:37.386Z,14.75
2019-03-17T19:56:07.975Z,15.25
2019-03-17T19:58:35.883Z,16.17
2019-03-17T20:01:05.643Z,14.05
2019-03-17T20:03:33.507Z,13.90
2019-03-17T20:06:02.822Z,15.10
2019-03-17T20:08:30.875Z,14.35
2019-03-17T20:10:59.201Z,15.83
2019-03-17T20:13:29.955Z,13.65
2019-03-17T20:16:00.165Z,16.35
2019-03-17T20:18:28.111Z,15.95
2019-03-17T20:20:56.091Z,14.20
2019-03-17T20:23:24.187Z,14.23
2019-03-17T20:25:52.269Z,12.88
2019-03-17T20:28:20.289Z,13.22
2019-03-17T20:30:48.280Z,12.45
2019-03-17T20:33:18.260Z,13.90
2019-03-17T20:35:45.980Z,12.53
2019-03-17T20:38:14.219Z,13.32
2019-03-17T20:40:42.533Z,12.78
2019-03-17T20:43:23.931Z,13.40
2019-03-17T20:45:42.210Z,13.25
2019-03-17T20:48:10.508Z,12.33
2019-03-17T20:50:39.655Z,12.53
2019-03-17T20:53:07.613Z,13.20
2019-03-17T20:55:35.507Z,12.70
2019-03-17T20:58:03.454Z,13.10
2019-03-17T21:00:31.395Z,13.00
2019-03-17T21:03:07.080Z,14.10
2019-03-17T21:05:36.058Z,14.25
2019-03-17T21:08:07.761Z,15.15
2019-03-17T21:10:37.490Z,14.43
2019-03-17T21:13:08.404Z,17.05
2019-03-17T21:15:36.367Z,15.43
2019-03-17T21:18:04.312Z,15.55
2019-03-17T21:20:32.232Z,15.65
2019-03-17T21:23:01.716Z,14.90
2019-03-17T21:25:30.837Z,14.90
2019-03-17T21:27:58.783Z,16.20
2019-03-17T21:30:26.744Z,15.68
2019-03-17T21:32:55.570Z,13.83
2019-03-17T21:35:23.585Z,15.20
2019-03-17T21:37:53.532Z,14.00
2019-03-17T21:40:21.703Z,14.90
2019-03-17T21:42:49.580Z,14.20
2019-03-17T21:45:19.755Z,13.85
2019-03-17T21:47:49.806Z,14.00
2019-03-17T21:50:17.877Z,13.78
2019-03-17T21:52:45.773Z,14.75
2019-03-17T21:55:14.105Z,14.50
2019-03-17T21:57:42.088Z,16.65
2019-03-17T22:00:11.280Z,14.45
2019-03-17T22:02:39.192Z,15.50
2019-03-17T22:05:08.445Z,15.40
2019-03-17T22:07:48.209Z,15.63
2019-03-17T22:10:06.435Z,17.12
2019-03-17T22:12:34.701Z,15.28
2019-03-17T22:15:02.624Z,16.67
2019-03-17T22:17:30.564Z,16.80
2019-03-17T22:20:01.058Z,18.05
2019-03-17T22:22:30.623Z,20.05
2019-03-17T22:24:59.675Z,14.70
2019-03-17T22:27:27.684Z,14.47
2019-03-17T22:29:55.516Z,15.20
2019-03-17T22:32:23.655Z,14.68
2019-03-17T22:34:53.855Z,13.60
2019-03-17T22:37:22.639Z,13.50
2019-03-17T22:39:52.272Z,13.43
2019-03-17T22:42:21.234Z,13.58
2019-03-17T22:44:49.162Z,13.30
2019-03-17T22:47:17.055Z,13.38
2019-03-17T22:49:45.114Z,13.93
2019-03-17T22:52:13.478Z,16.30
2019-03-17T22:54:43.766Z,13.58
2019-03-17T22:57:14.828Z,14.55
2019-03-17T22:59:42.736Z,13.98
2019-03-17T23:02:10.645Z,15.53
2019-03-17T23:04:39.642Z,14.38
2019-03-17T23:07:07.505Z,12.82
2019-03-17T23:09:36.549Z,14.47
2019-03-17T23:12:04.407Z,14.25
2019-03-17T23:14:36.946Z,13.60
2019-03-17T23:17:01.951Z,14.70
2019-03-17T23:19:29.862Z,14.28
2019-03-17T23:21:58.175Z,14.75
2019-03-17T23:24:26.272Z,14.85
2019-03-17T23:26:56.596Z,15.28
2019-03-17T23:29:24.530Z,13.72
2019-03-17T23:31:52.515Z,14.60
2019-03-17T23:34:20.415Z,13.43
2019-03-17T23:36:48.245Z,13.72
2019-03-17T23:39:16.150Z,14.05
2019-03-17T23:41:44.622Z,15.83
2019-03-17T23:44:12.554Z,14.73
2019-03-17T23:46:42.662Z,15.58
2019-03-17T23:49:10.748Z,15.18
2019-03-17T23:51:38.654Z,14.68
2019-03-17T23:54:09.009Z,15.28
2019-03-17T23:56:36.879Z,15.25
2019-03-17T23:59:04.807Z,15.48
